sensor_id;sensor_type;location;lat;lon;timestamp;pressure;altitude;pressure_sealevel;temperature;humidity
14242;BME280;7205;50.864;12.766;2022-10-03T00:01:35;98193.44;;;11.42;100.00
14242;BME280;7205;50.864;12.766;2022-10-03T00:04:25;98198.09;;;11.40;100.00
14242;BME280;7205;50.864;12.766;2022-10-03T00:07:06;98197.09;;;11.41;100.00
14242;BME280;7205;50.864;12.766;2022-10-03T00:09:49;98196.91;;;11.43;100.00
14242;BME280;7205;50.864;12.766;2022-10-03T00:12:36;98200.56;;;11.42;100.00
14242;BME280;7205;50.864;12.766;2022-10-03T00:15:17;98209.28;;;11.42;100.00
14242;BME280;7205;50.864;12.766;2022-10-03T00:17:57;98207.50;;;11.43;100.00
14242;BME280;7205;50.864;12.766;2022-10-03T00:20:49;98203.88;;;11.44;100.00
14242;BME280;7205;50.864;12.766;2022-10-03T00:23:25;98211.63;;;11.45;100.00
14242;BME280;7205;50.864;12.766;2022-10-03T00:25:59;98207.97;;;11.46;100.00
14242;BME280;7205;50.864;12.766;2022-10-03T00:29:02;98214.78;;;11.49;100.00
14242;BME280;7205;50.864;12.766;2022-10-03T00:31:44;98219.06;;;11.50;100.00
14242;BME280;7205;50.864;12.766;2022-10-03T00:34:26;98217.09;;;11.52;100.00
14242;BME280;7205;50.864;12.766;2022-10-03T00:37:11;98230.13;;;11.53;100.00
14242;BME280;7205;50.864;12.766;2022-10-03T00:39:54;98225.81;;;11.52;100.00
14242;BME280;7205;50.864;12.766;2022-10-03T00:45:57;98225.50;;;11.55;100.00
14242;BME280;7205;50.864;12.766;2022-10-03T00:51:51;98230.13;;;11.53;100.00
14242;BME280;7205;50.864;12.766;2022-10-03T00:54:35;98231.94;;;11.53;100.00
14242;BME280;7205;50.864;12.766;2022-10-03T00:57:28;98238.25;;;11.52;100.00
14242;BME280;7205;50.864;12.766;2022-10-03T01:00:12;98226.16;;;11.49;100.00
14242;BME280;7205;50.864;12.766;2022-10-03T01:02:46;98234.44;;;11.46;100.00
14242;BME280;7205;50.864;12.766;2022-10-03T01:05:25;98243.53;;;11.44;100.00
14242;BME280;7205;50.864;12.766;2022-10-03T01:08:07;98235.09;;;11.40;100.00
14242;BME280;7205;50.864;12.766;2022-10-03T01:10:51;98244.34;;;11.36;100.00
14242;BME280;7205;50.864;12.766;2022-10-03T01:13:30;98240.88;;;11.35;100.00
14242;BME280;7205;50.864;12.766;2022-10-03T01:16:10;98247.00;;;11.36;100.00
14242;BME280;7205;50.864;12.766;2022-10-03T01:18:48;98245.19;;;11.36;100.00
14242;BME280;7205;50.864;12.766;2022-10-03T01:21:28;98244.19;;;11.37;100.00
14242;BME280;7205;50.864;12.766;2022-10-03T01:24:32;98241.19;;;11.32;100.00
14242;BME280;7205;50.864;12.766;2022-10-03T01:27:05;98244.84;;;11.31;100.00
14242;BME280;7205;50.864;12.766;2022-10-03T01:29:48;98247.50;;;11.31;100.00
14242;BME280;7205;50.864;12.766;2022-10-03T01:32:41;98246.31;;;11.34;100.00
14242;BME280;7205;50.864;12.766;2022-10-03T01:35:19;98255.09;;;11.34;100.00
14242;BME280;7205;50.864;12.766;2022-10-03T01:37:55;98247.50;;;11.31;100.00
14242;BME280;7205;50.864;12.766;2022-10-03T01:40:27;98247.66;;;11.30;100.00
14242;BME280;7205;50.864;12.766;2022-10-03T01:43:12;98257.72;;;11.26;100.00
14242;BME280;7205;50.864;12.766;2022-10-03T01:45:48;98255.25;;;11.25;100.00
14242;BME280;7205;50.864;12.766;2022-10-03T01:48:21;98251.94;;;11.23;100.00
14242;BME280;7205;50.864;12.766;2022-10-03T01:50:58;98251.44;;;11.19;100.00
14242;BME280;7205;50.864;12.766;2022-10-03T01:53:34;98246.16;;;11.19;100.00
14242;BME280;7205;50.864;12.766;2022-10-03T01:56:09;98250.13;;;11.23;100.00
14242;BME280;7205;50.864;12.766;2022-10-03T01:58:46;98244.34;;;11.20;100.00
14242;BME280;7205;50.864;12.766;2022-10-03T02:01:23;98257.41;;;11.21;100.00
14242;BME280;7205;50.864;12.766;2022-10-03T02:03:56;98258.22;;;11.22;100.00
14242;BME280;7205;50.864;12.766;2022-10-03T02:06:38;98253.59;;;11.16;100.00
14242;BME280;7205;50.864;12.766;2022-10-03T02:09:22;98255.72;;;11.12;100.00
14242;BME280;7205;50.864;12.766;2022-10-03T02:12:03;98254.56;;;11.07;100.00
14242;BME280;7205;50.864;12.766;2022-10-03T02:14:40;98260.84;;;11.06;100.00
14242;BME280;7205;50.864;12.766;2022-10-03T02:17:24;98260.16;;;11.04;100.00
14242;BME280;7205;50.864;12.766;2022-10-03T02:19:59;98262.00;;;11.03;100.00
14242;BME280;7205;50.864;12.766;2022-10-03T02:22:30;98264.66;;;11.03;100.00
14242;BME280;7205;50.864;12.766;2022-10-03T02:25:19;98255.22;;;11.01;100.00
14242;BME280;7205;50.864;12.766;2022-10-03T02:28:18;98259.84;;;10.99;100.00
14242;BME280;7205;50.864;12.766;2022-10-03T02:31:03;98262.47;;;10.99;100.00
14242;BME280;7205;50.864;12.766;2022-10-03T02:34:00;98267.75;;;10.99;100.00
14242;BME280;7205;50.864;12.766;2022-10-03T02:42:35;98263.47;;;10.98;100.00
14242;BME280;7205;50.864;12.766;2022-10-03T02:45:32;98271.25;;;10.99;100.00
14242;BME280;7205;50.864;12.766;2022-10-03T02:51:40;98274.38;;;11.03;100.00
14242;BME280;7205;50.864;12.766;2022-10-03T02:54:47;98273.53;;;11.02;100.00
14242;BME280;7205;50.864;12.766;2022-10-03T02:57:45;98272.56;;;11.03;100.00
14242;BME280;7205;50.864;12.766;2022-10-03T03:00:18;98272.56;;;11.03;100.00
14242;BME280;7205;50.864;12.766;2022-10-03T03:06:35;98274.06;;;11.06;100.00
14242;BME280;7205;50.864;12.766;2022-10-03T03:09:34;98273.06;;;11.07;100.00
14242;BME280;7205;50.864;12.766;2022-10-03T03:12:27;98279.84;;;11.09;100.00
14242;BME280;7205;50.864;12.766;2022-10-03T03:18:18;98282.16;;;11.04;100.00
14242;BME280;7205;50.864;12.766;2022-10-03T03:21:00;98286.25;;;10.99;100.00
14242;BME280;7205;50.864;12.766;2022-10-03T03:23:45;98291.53;;;10.91;100.00
14242;BME280;7205;50.864;12.766;2022-10-03T03:26:27;98286.06;;;10.84;100.00
14242;BME280;7205;50.864;12.766;2022-10-03T03:29:07;98290.16;;;10.79;100.00
14242;BME280;7205;50.864;12.766;2022-10-03T03:31:44;98301.88;;;10.76;100.00
14242;BME280;7205;50.864;12.766;2022-10-03T03:34:22;98305.66;;;10.74;100.00
14242;BME280;7205;50.864;12.766;2022-10-03T03:36:57;98306.00;;;10.71;100.00
14242;BME280;7205;50.864;12.766;2022-10-03T03:39:41;98316.03;;;10.67;100.00
14242;BME280;7205;50.864;12.766;2022-10-03T03:42:30;98317.38;;;10.63;100.00
14242;BME280;7205;50.864;12.766;2022-10-03T03:45:07;98321.28;;;10.59;100.00
14242;BME280;7205;50.864;12.766;2022-10-03T03:48:02;98322.44;;;10.57;100.00
14242;BME280;7205;50.864;12.766;2022-10-03T03:50:43;98327.06;;;10.55;100.00
14242;BME280;7205;50.864;12.766;2022-10-03T03:53:27;98315.00;;;10.52;100.00
14242;BME280;7205;50.864;12.766;2022-10-03T03:56:10;98321.25;;;10.51;100.00
14242;BME280;7205;50.864;12.766;2022-10-03T03:58:47;98330.16;;;10.50;100.00
14242;BME280;7205;50.864;12.766;2022-10-03T04:01:40;98328.50;;;10.49;100.00
14242;BME280;7205;50.864;12.766;2022-10-03T04:04:31;98319.75;;;10.49;100.00
14242;BME280;7205;50.864;12.766;2022-10-03T04:07:10;98332.16;;;10.48;100.00
14242;BME280;7205;50.864;12.766;2022-10-03T04:09:57;98340.06;;;10.48;100.00
14242;BME280;7205;50.864;12.766;2022-10-03T04:12:40;98324.22;;;10.48;100.00
14242;BME280;7205;50.864;12.766;2022-10-03T04:15:24;98325.03;;;10.49;100.00
14242;BME280;7205;50.864;12.766;2022-10-03T04:18:08;98331.16;;;10.49;100.00
14242;BME280;7205;50.864;12.766;2022-10-03T04:21:04;98339.06;;;10.49;100.00
14242;BME280;7205;50.864;12.766;2022-10-03T04:23:51;98337.44;;;10.48;100.00
14242;BME280;7205;50.864;12.766;2022-10-03T04:26:40;98341.34;;;10.44;100.00
14242;BME280;7205;50.864;12.766;2022-10-03T04:29:44;98357.50;;;10.41;100.00
14242;BME280;7205;50.864;12.766;2022-10-03T04:32:22;98335.88;;;10.38;100.00
14242;BME280;7205;50.864;12.766;2022-10-03T04:35:10;98346.75;;;10.35;100.00
14242;BME280;7205;50.864;12.766;2022-10-03T04:37:43;98353.00;;;10.34;100.00
14242;BME280;7205;50.864;12.766;2022-10-03T04:40:24;98343.75;;;10.30;100.00
14242;BME280;7205;50.864;12.766;2022-10-03T04:43:01;98339.97;;;10.32;100.00
14242;BME280;7205;50.864;12.766;2022-10-03T04:45:39;98338.00;;;10.34;100.00
14242;BME280;7205;50.864;12.766;2022-10-03T04:48:13;98344.13;;;10.35;100.00
14242;BME280;7205;50.864;12.766;2022-10-03T04:50:44;98353.34;;;10.39;100.00
14242;BME280;7205;50.864;12.766;2022-10-03T04:53:25;98339.34;;;10.38;100.00
14242;BME280;7205;50.864;12.766;2022-10-03T04:56:15;98347.28;;;10.38;100.00
14242;BME280;7205;50.864;12.766;2022-10-03T04:58:49;98333.41;;;10.36;100.00
14242;BME280;7205;50.864;12.766;2022-10-03T05:01:26;98336.19;;;10.35;100.00
14242;BME280;7205;50.864;12.766;2022-10-03T05:04:04;98347.72;;;10.34;100.00
14242;BME280;7205;50.864;12.766;2022-10-03T05:06:41;98359.13;;;10.34;100.00
14242;BME280;7205;50.864;12.766;2022-10-03T05:09:22;98354.84;;;10.33;100.00
14242;BME280;7205;50.864;12.766;2022-10-03T05:12:01;98361.91;;;10.33;100.00
14242;BME280;7205;50.864;12.766;2022-10-03T05:14:48;98358.44;;;10.32;100.00
14242;BME280;7205;50.864;12.766;2022-10-03T05:17:23;98364.56;;;10.33;100.00
14242;BME280;7205;50.864;12.766;2022-10-03T05:20:13;98361.91;;;10.33;100.00
14242;BME280;7205;50.864;12.766;2022-10-03T05:22:49;98364.56;;;10.33;100.00
14242;BME280;7205;50.864;12.766;2022-10-03T05:25:28;98363.56;;;10.34;100.00
14242;BME280;7205;50.864;12.766;2022-10-03T05:28:10;98370.50;;;10.35;100.00
14242;BME280;7205;50.864;12.766;2022-10-03T05:30:42;98362.44;;;10.36;100.00
14242;BME280;7205;50.864;12.766;2022-10-03T05:33:22;98367.56;;;10.38;100.00
14242;BME280;7205;50.864;12.766;2022-10-03T05:36:09;98372.84;;;10.38;100.00
14242;BME280;7205;50.864;12.766;2022-10-03T05:38:58;98375.31;;;10.39;100.00
14242;BME280;7205;50.864;12.766;2022-10-03T05:41:29;98374.84;;;10.44;100.00
14242;BME280;7205;50.864;12.766;2022-10-03T05:44:03;98381.47;;;10.48;100.00
14242;BME280;7205;50.864;12.766;2022-10-03T05:46:38;98384.78;;;10.50;100.00
14242;BME280;7205;50.864;12.766;2022-10-03T05:49:23;98380.84;;;10.54;100.00
14242;BME280;7205;50.864;12.766;2022-10-03T05:52:17;98397.88;;;10.59;100.00
14242;BME280;7205;50.864;12.766;2022-10-03T05:58:06;98399.06;;;10.65;100.00
14242;BME280;7205;50.864;12.766;2022-10-03T06:01:02;98403.38;;;10.66;100.00
14242;BME280;7205;50.864;12.766;2022-10-03T06:06:56;98413.28;;;10.72;100.00
14242;BME280;7205;50.864;12.766;2022-10-03T06:12:37;98413.50;;;10.78;100.00
14242;BME280;7205;50.864;12.766;2022-10-03T06:18:30;98412.88;;;10.84;100.00
14242;BME280;7205;50.864;12.766;2022-10-03T06:21:29;98417.00;;;10.87;100.00
14242;BME280;7205;50.864;12.766;2022-10-03T06:24:18;98419.34;;;10.90;100.00
14242;BME280;7205;50.864;12.766;2022-10-03T06:27:31;98425.28;;;10.92;100.00
14242;BME280;7205;50.864;12.766;2022-10-03T06:30:19;98429.44;;;10.94;100.00
14242;BME280;7205;50.864;12.766;2022-10-03T06:33:09;98428.94;;;10.99;100.00
14242;BME280;7205;50.864;12.766;2022-10-03T06:36:13;98430.97;;;11.05;100.00
14242;BME280;7205;50.864;12.766;2022-10-03T06:42:34;98447.19;;;11.10;100.00
14242;BME280;7205;50.864;12.766;2022-10-03T06:48:18;98444.06;;;11.14;100.00
14242;BME280;7205;50.864;12.766;2022-10-03T06:50:53;98450.84;;;11.17;100.00
14242;BME280;7205;50.864;12.766;2022-10-03T06:53:39;98445.41;;;11.18;100.00
14242;BME280;7205;50.864;12.766;2022-10-03T07:11:28;98468.78;;;11.39;100.00
14242;BME280;7205;50.864;12.766;2022-10-03T07:17:36;98478.41;;;11.48;100.00
14242;BME280;7205;50.864;12.766;2022-10-03T07:26:43;98482.63;;;11.67;100.00
14242;BME280;7205;50.864;12.766;2022-10-03T07:29:26;98480.00;;;11.75;100.00
14242;BME280;7205;50.864;12.766;2022-10-03T07:32:22;98476.88;;;11.79;100.00
14242;BME280;7205;50.864;12.766;2022-10-03T07:35:24;98479.06;;;11.84;100.00
14242;BME280;7205;50.864;12.766;2022-10-03T07:38:37;98489.66;;;11.92;100.00
14242;BME280;7205;50.864;12.766;2022-10-03T07:41:46;98499.38;;;11.91;100.00
14242;BME280;7205;50.864;12.766;2022-10-03T07:51:04;98498.56;;;11.91;100.00
14242;BME280;7205;50.864;12.766;2022-10-03T07:54:05;98496.09;;;11.97;100.00
14242;BME280;7205;50.864;12.766;2022-10-03T08:00:19;98500.56;;;12.05;100.00
14242;BME280;7205;50.864;12.766;2022-10-03T08:06:16;98495.63;;;12.18;100.00
14242;BME280;7205;50.864;12.766;2022-10-03T08:09:09;98496.47;;;12.26;100.00
14242;BME280;7205;50.864;12.766;2022-10-03T08:11:55;98491.34;;;12.33;100.00
14242;BME280;7205;50.864;12.766;2022-10-03T08:14:34;98492.84;;;12.35;100.00
14242;BME280;7205;50.864;12.766;2022-10-03T08:20:28;98493.00;;;12.50;100.00
14242;BME280;7205;50.864;12.766;2022-10-03T08:23:18;98487.19;;;12.54;100.00
14242;BME280;7205;50.864;12.766;2022-10-03T08:25:57;98487.66;;;12.66;100.00
14242;BME280;7205;50.864;12.766;2022-10-03T08:28:49;98486.19;;;12.72;100.00
14242;BME280;7205;50.864;12.766;2022-10-03T08:31:40;98490.66;;;12.79;100.00
14242;BME280;7205;50.864;12.766;2022-10-03T08:41:02;98489.47;;;12.82;100.00
14242;BME280;7205;50.864;12.766;2022-10-03T08:44:05;98486.31;;;12.86;100.00
14242;BME280;7205;50.864;12.766;2022-10-03T08:47:06;98502.56;;;12.83;100.00
14242;BME280;7205;50.864;12.766;2022-10-03T08:50:08;98479.56;;;12.76;100.00
14242;BME280;7205;50.864;12.766;2022-10-03T08:53:09;98483.03;;;12.76;100.00
14242;BME280;7205;50.864;12.766;2022-10-03T08:55:47;98495.28;;;12.85;100.00
14242;BME280;7205;50.864;12.766;2022-10-03T09:01:27;98486.50;;;12.77;100.00
14242;BME280;7205;50.864;12.766;2022-10-03T09:04:31;98483.38;;;12.65;100.00
14242;BME280;7205;50.864;12.766;2022-10-03T09:07:39;98489.84;;;12.54;100.00
14242;BME280;7205;50.864;12.766;2022-10-03T09:13:39;98503.56;;;12.82;100.00
14242;BME280;7205;50.864;12.766;2022-10-03T09:16:47;98502.41;;;12.85;100.00
14242;BME280;7205;50.864;12.766;2022-10-03T09:19:29;98499.06;;;12.83;100.00
14242;BME280;7205;50.864;12.766;2022-10-03T09:22:12;98505.53;;;12.88;100.00
14242;BME280;7205;50.864;12.766;2022-10-03T09:25:03;98504.72;;;12.96;100.00
14242;BME280;7205;50.864;12.766;2022-10-03T09:27:48;98495.44;;;13.08;100.00
14242;BME280;7205;50.864;12.766;2022-10-03T09:30:41;98494.72;;;13.22;100.00
14242;BME280;7205;50.864;12.766;2022-10-03T09:36:33;98496.31;;;13.39;100.00
14242;BME280;7205;50.864;12.766;2022-10-03T09:42:45;98491.56;;;13.26;100.00
14242;BME280;7205;50.864;12.766;2022-10-03T09:45:34;98499.84;;;13.23;100.00
14242;BME280;7205;50.864;12.766;2022-10-03T09:48:27;98480.63;;;13.21;100.00
14242;BME280;7205;50.864;12.766;2022-10-03T09:51:26;98488.44;;;13.23;100.00
14242;BME280;7205;50.864;12.766;2022-10-03T09:54:21;98495.69;;;13.29;100.00
14242;BME280;7205;50.864;12.766;2022-10-03T09:57:38;98491.19;;;13.37;100.00
14242;BME280;7205;50.864;12.766;2022-10-03T10:00:18;98500.75;;;13.54;100.00
14242;BME280;7205;50.864;12.766;2022-10-03T10:03:11;98495.72;;;13.67;100.00
14242;BME280;7205;50.864;12.766;2022-10-03T10:06:11;98486.69;;;13.76;100.00
14242;BME280;7205;50.864;12.766;2022-10-03T10:08:57;98501.94;;;13.82;100.00
14242;BME280;7205;50.864;12.766;2022-10-03T10:11:49;98483.28;;;13.91;100.00
14242;BME280;7205;50.864;12.766;2022-10-03T10:14:35;98489.56;;;13.98;100.00
14242;BME280;7205;50.864;12.766;2022-10-03T10:17:38;98488.84;;;14.04;100.00
14242;BME280;7205;50.864;12.766;2022-10-03T10:20:33;98481.97;;;14.17;100.00
14242;BME280;7205;50.864;12.766;2022-10-03T10:23:22;98468.31;;;14.28;100.00
14242;BME280;7205;50.864;12.766;2022-10-03T10:29:27;98467.22;;;14.37;100.00
14242;BME280;7205;50.864;12.766;2022-10-03T10:32:25;98469.22;;;14.35;99.72
14242;BME280;7205;50.864;12.766;2022-10-03T10:35:20;98455.75;;;14.14;97.53
14242;BME280;7205;50.864;12.766;2022-10-03T10:38:23;98466.28;;;13.77;98.20
14242;BME280;7205;50.864;12.766;2022-10-03T10:44:42;98485.75;;;13.31;100.00
14242;BME280;7205;50.864;12.766;2022-10-03T10:56:58;98487.41;;;13.70;100.00
14242;BME280;7205;50.864;12.766;2022-10-03T11:03:00;98488.38;;;14.00;100.00
14242;BME280;7205;50.864;12.766;2022-10-03T11:05:47;98490.72;;;14.26;100.00
14242;BME280;7205;50.864;12.766;2022-10-03T11:09:00;98484.84;;;14.38;100.00
14242;BME280;7205;50.864;12.766;2022-10-03T11:11:55;98475.66;;;14.41;100.00
14242;BME280;7205;50.864;12.766;2022-10-03T11:27:28;98461.06;;;14.59;95.21
14242;BME280;7205;50.864;12.766;2022-10-03T11:36:42;98467.50;;;14.65;96.44
14242;BME280;7205;50.864;12.766;2022-10-03T11:39:22;98469.59;;;14.69;95.18
14242;BME280;7205;50.864;12.766;2022-10-03T11:42:00;98470.78;;;14.67;93.28
14242;BME280;7205;50.864;12.766;2022-10-03T11:44:32;98466.38;;;14.59;90.88
14242;BME280;7205;50.864;12.766;2022-10-03T11:47:28;98460.19;;;14.44;90.25
14242;BME280;7205;50.864;12.766;2022-10-03T11:50:26;98458.97;;;14.32;89.68
14242;BME280;7205;50.864;12.766;2022-10-03T11:53:11;98463.16;;;14.27;90.33
14242;BME280;7205;50.864;12.766;2022-10-03T11:55:45;98462.66;;;14.23;90.40
14242;BME280;7205;50.864;12.766;2022-10-03T11:58:29;98463.84;;;14.21;91.21
14242;BME280;7205;50.864;12.766;2022-10-03T12:01:17;98472.97;;;14.26;91.92
14242;BME280;7205;50.864;12.766;2022-10-03T12:03:51;98462.63;;;14.31;91.61
14242;BME280;7205;50.864;12.766;2022-10-03T12:06:38;98464.44;;;14.31;90.28
14242;BME280;7205;50.864;12.766;2022-10-03T12:09:33;98461.63;;;14.32;90.32
14242;BME280;7205;50.864;12.766;2022-10-03T12:12:09;98454.59;;;14.39;90.44
14242;BME280;7205;50.864;12.766;2022-10-03T12:14:41;98443.22;;;14.45;90.96
14242;BME280;7205;50.864;12.766;2022-10-03T12:17:14;98448.66;;;14.52;91.06
14242;BME280;7205;50.864;12.766;2022-10-03T12:19:53;98448.59;;;14.60;91.26
14242;BME280;7205;50.864;12.766;2022-10-03T12:22:41;98462.09;;;14.73;92.20
14242;BME280;7205;50.864;12.766;2022-10-03T12:25:18;98453.56;;;14.92;91.48
14242;BME280;7205;50.864;12.766;2022-10-03T12:27:54;98446.16;;;15.02;88.47
14242;BME280;7205;50.864;12.766;2022-10-03T12:30:23;98438.72;;;15.12;86.46
14242;BME280;7205;50.864;12.766;2022-10-03T12:33:06;98445.97;;;15.18;83.91
14242;BME280;7205;50.864;12.766;2022-10-03T12:35:41;98433.59;;;15.25;82.40
14242;BME280;7205;50.864;12.766;2022-10-03T12:38:29;98433.41;;;15.27;79.83
14242;BME280;7205;50.864;12.766;2022-10-03T12:41:20;98430.19;;;15.31;77.73
14242;BME280;7205;50.864;12.766;2022-10-03T12:44:04;98423.69;;;15.34;76.70
14242;BME280;7205;50.864;12.766;2022-10-03T12:46:53;98433.13;;;15.36;76.63
14242;BME280;7205;50.864;12.766;2022-10-03T12:49:45;98427.78;;;15.36;76.57
14242;BME280;7205;50.864;12.766;2022-10-03T12:52:20;98437.59;;;15.36;77.17
14242;BME280;7205;50.864;12.766;2022-10-03T12:54:57;98431.78;;;15.40;77.97
14242;BME280;7205;50.864;12.766;2022-10-03T12:57:45;98443.94;;;15.49;79.32
14242;BME280;7205;50.864;12.766;2022-10-03T13:00:22;98450.91;;;15.65;80.28
14242;BME280;7205;50.864;12.766;2022-10-03T13:03:03;98450.06;;;15.79;78.75
14242;BME280;7205;50.864;12.766;2022-10-03T13:05:49;98428.19;;;15.83;77.02
14242;BME280;7205;50.864;12.766;2022-10-03T13:08:36;98433.50;;;15.83;76.69
14242;BME280;7205;50.864;12.766;2022-10-03T13:11:19;98429.19;;;15.82;75.10
14242;BME280;7205;50.864;12.766;2022-10-03T13:14:02;98418.63;;;15.74;74.21
14242;BME280;7205;50.864;12.766;2022-10-03T13:16:34;98432.53;;;15.70;74.77
14242;BME280;7205;50.864;12.766;2022-10-03T13:19:10;98426.28;;;15.63;74.06
14242;BME280;7205;50.864;12.766;2022-10-03T13:21:58;98435.22;;;15.55;74.37
14242;BME280;7205;50.864;12.766;2022-10-03T13:24:37;98429.19;;;15.47;74.92
14242;BME280;7205;50.864;12.766;2022-10-03T13:27:29;98428.94;;;15.42;75.88
14242;BME280;7205;50.864;12.766;2022-10-03T13:30:03;98421.59;;;15.44;76.78
14242;BME280;7205;50.864;12.766;2022-10-03T13:32:34;98415.03;;;15.46;77.34
14242;BME280;7205;50.864;12.766;2022-10-03T13:35:18;98417.59;;;15.54;78.82
14242;BME280;7205;50.864;12.766;2022-10-03T13:38:12;98421.34;;;15.60;78.05
14242;BME280;7205;50.864;12.766;2022-10-03T13:40:45;98421.09;;;15.55;75.93
14242;BME280;7205;50.864;12.766;2022-10-03T13:43:16;98416.88;;;15.46;75.39
14242;BME280;7205;50.864;12.766;2022-10-03T13:45:48;98408.97;;;15.38;75.73
14242;BME280;7205;50.864;12.766;2022-10-03T13:48:22;98405.97;;;15.26;76.17
14242;BME280;7205;50.864;12.766;2022-10-03T13:51:00;98418.72;;;15.16;76.57
14242;BME280;7205;50.864;12.766;2022-10-03T13:53:46;98412.84;;;15.06;77.42
14242;BME280;7205;50.864;12.766;2022-10-03T13:56:37;98413.59;;;15.00;78.21
14242;BME280;7205;50.864;12.766;2022-10-03T13:59:16;98416.00;;;14.95;79.15
14242;BME280;7205;50.864;12.766;2022-10-03T14:01:53;98421.03;;;14.90;80.37
14242;BME280;7205;50.864;12.766;2022-10-03T14:04:46;98435.59;;;14.94;81.07
14242;BME280;7205;50.864;12.766;2022-10-03T14:07:25;98426.44;;;14.96;81.72
14242;BME280;7205;50.864;12.766;2022-10-03T14:10:08;98433.69;;;15.02;81.44
14242;BME280;7205;50.864;12.766;2022-10-03T14:12:49;98429.47;;;15.08;81.25
14242;BME280;7205;50.864;12.766;2022-10-03T14:15:40;98428.91;;;15.13;81.03
14242;BME280;7205;50.864;12.766;2022-10-03T14:18:18;98429.38;;;15.16;80.56
14242;BME280;7205;50.864;12.766;2022-10-03T14:24:08;98418.16;;;15.21;79.85
14242;BME280;7205;50.864;12.766;2022-10-03T14:26:43;98425.81;;;15.24;78.63
14242;BME280;7205;50.864;12.766;2022-10-03T14:29:18;98426.16;;;15.21;78.40
14242;BME280;7205;50.864;12.766;2022-10-03T14:31:55;98419.56;;;15.17;78.95
14242;BME280;7205;50.864;12.766;2022-10-03T14:34:34;98420.56;;;15.16;78.99
14242;BME280;7205;50.864;12.766;2022-10-03T14:37:14;98417.81;;;15.09;78.52
14242;BME280;7205;50.864;12.766;2022-10-03T14:39:57;98413.69;;;15.06;79.86
14242;BME280;7205;50.864;12.766;2022-10-03T14:42:42;98415.78;;;15.11;80.05
14242;BME280;7205;50.864;12.766;2022-10-03T14:45:22;98408.09;;;15.16;80.39
14242;BME280;7205;50.864;12.766;2022-10-03T14:47:53;98408.34;;;15.21;80.42
14242;BME280;7205;50.864;12.766;2022-10-03T14:50:22;98402.66;;;15.24;80.42
14242;BME280;7205;50.864;12.766;2022-10-03T14:52:54;98404.94;;;15.27;80.46
14242;BME280;7205;50.864;12.766;2022-10-03T14:55:30;98407.44;;;15.29;80.22
14242;BME280;7205;50.864;12.766;2022-10-03T14:58:00;98408.44;;;15.28;79.91
14242;BME280;7205;50.864;12.766;2022-10-03T15:00:36;98398.16;;;15.25;79.90
14242;BME280;7205;50.864;12.766;2022-10-03T15:03:35;98392.97;;;15.17;80.33
14242;BME280;7205;50.864;12.766;2022-10-03T15:06:30;98398.72;;;15.05;80.36
14242;BME280;7205;50.864;12.766;2022-10-03T15:09:00;98400.03;;;14.95;80.40
14242;BME280;7205;50.864;12.766;2022-10-03T15:11:31;98401.69;;;14.81;80.66
14242;BME280;7205;50.864;12.766;2022-10-03T15:14:01;98402.75;;;14.72;81.53
14242;BME280;7205;50.864;12.766;2022-10-03T15:16:32;98409.19;;;14.63;81.93
14242;BME280;7205;50.864;12.766;2022-10-03T15:19:07;98415.22;;;14.57;82.77
14242;BME280;7205;50.864;12.766;2022-10-03T15:21:36;98414.28;;;14.50;83.42
14242;BME280;7205;50.864;12.766;2022-10-03T15:24:05;98406.38;;;14.42;84.03
14242;BME280;7205;50.864;12.766;2022-10-03T15:26:39;98409.78;;;14.36;85.51
14242;BME280;7205;50.864;12.766;2022-10-03T15:29:13;98418.44;;;14.30;86.20
14242;BME280;7205;50.864;12.766;2022-10-03T15:31:47;98434.75;;;14.27;87.07
14242;BME280;7205;50.864;12.766;2022-10-03T15:34:16;98429.13;;;14.22;86.80
14242;BME280;7205;50.864;12.766;2022-10-03T15:36:48;98419.22;;;14.16;87.10
14242;BME280;7205;50.864;12.766;2022-10-03T15:39:18;98422.69;;;14.17;88.18
14242;BME280;7205;50.864;12.766;2022-10-03T15:41:53;98418.84;;;14.19;88.04
14242;BME280;7205;50.864;12.766;2022-10-03T15:44:22;98422.63;;;14.25;88.11
14242;BME280;7205;50.864;12.766;2022-10-03T15:46:56;98418.16;;;14.25;87.68
14242;BME280;7205;50.864;12.766;2022-10-03T15:49:43;98415.00;;;14.22;87.69
14242;BME280;7205;50.864;12.766;2022-10-03T15:52:15;98414.09;;;14.15;87.43
14242;BME280;7205;50.864;12.766;2022-10-03T15:54:46;98413.97;;;14.08;87.60
14242;BME280;7205;50.864;12.766;2022-10-03T15:57:25;98413.50;;;14.05;88.10
14242;BME280;7205;50.864;12.766;2022-10-03T15:59:55;98409.28;;;14.10;88.85
14242;BME280;7205;50.864;12.766;2022-10-03T16:02:29;98415.00;;;14.22;89.04
14242;BME280;7205;50.864;12.766;2022-10-03T16:04:58;98417.09;;;14.34;89.02
14242;BME280;7205;50.864;12.766;2022-10-03T16:07:34;98415.00;;;14.44;89.18
14242;BME280;7205;50.864;12.766;2022-10-03T16:10:18;98418.06;;;14.56;89.52
14242;BME280;7205;50.864;12.766;2022-10-03T16:13:00;98414.94;;;14.67;88.70
14242;BME280;7205;50.864;12.766;2022-10-03T16:15:42;98393.06;;;14.65;87.51
14242;BME280;7205;50.864;12.766;2022-10-03T16:18:38;98398.63;;;14.55;86.36
14242;BME280;7205;50.864;12.766;2022-10-03T16:21:12;98399.91;;;14.45;86.60
14242;BME280;7205;50.864;12.766;2022-10-03T16:23:41;98395.84;;;14.34;86.56
14242;BME280;7205;50.864;12.766;2022-10-03T16:26:17;98403.06;;;14.26;86.85
14242;BME280;7205;50.864;12.766;2022-10-03T16:28:51;98395.97;;;14.18;87.20
14242;BME280;7205;50.864;12.766;2022-10-03T16:31:25;98409.47;;;14.09;87.58
14242;BME280;7205;50.864;12.766;2022-10-03T16:37:39;98424.59;;;13.85;88.91
14242;BME280;7205;50.864;12.766;2022-10-03T16:40:20;98419.81;;;13.81;89.74
14242;BME280;7205;50.864;12.766;2022-10-03T16:43:14;98429.28;;;13.75;90.09
14242;BME280;7205;50.864;12.766;2022-10-03T16:45:49;98424.53;;;13.71;90.43